createdAt,value
2018-06-12T00:00:43.377Z,6.80
2018-06-12T00:01:43.416Z,10.40
2018-06-12T00:02:43.449Z,7.70
2018-06-12T00:03:43.486Z,8.80
2018-06-12T00:04:43.520Z,11.60
2018-06-12T00:05:43.558Z,9.80
2018-06-12T00:06:43.592Z,6.10
2018-06-12T00:07:43.628Z,8.20
2018-06-12T00:08:43.668Z,6.90
2018-06-12T00:09:43.701Z,6.40
2018-06-12T00:10:43.740Z,10.20
2018-06-12T00:11:43.772Z,9.40
2018-06-12T00:12:43.808Z,8.60
2018-06-12T00:13:43.845Z,11.30
2018-06-12T00:14:43.880Z,9.90
2018-06-12T00:15:43.915Z,9.80
2018-06-12T00:16:43.950Z,5.70
2018-06-12T00:17:43.988Z,7.80
2018-06-12T00:18:44.023Z,8.40
2018-06-12T00:19:44.059Z,6.30
2018-06-12T00:20:44.096Z,10.40
2018-06-12T00:21:44.132Z,5.40
2018-06-12T00:22:44.166Z,10.20
2018-06-12T00:23:44.202Z,5.80
2018-06-12T00:24:44.239Z,6.20
2018-06-12T00:25:44.276Z,6.50
2018-06-12T00:26:44.311Z,5.50
2018-06-12T00:27:44.346Z,8.50
2018-06-12T00:28:44.382Z,6.20
2018-06-12T00:29:44.418Z,12.40
2018-06-12T00:30:44.454Z,9.90
2018-06-12T00:31:44.491Z,7.90
2018-06-12T00:32:44.527Z,10.10
2018-06-12T00:33:44.566Z,13.10
2018-06-12T00:34:44.600Z,8.00
2018-06-12T00:35:44.635Z,7.00
2018-06-12T00:36:44.670Z,9.10
2018-06-12T00:37:44.707Z,8.10
2018-06-12T00:38:44.741Z,8.20
2018-06-12T00:39:44.777Z,8.50
2018-06-12T00:40:44.815Z,11.40
2018-06-12T00:41:44.851Z,13.10
2018-06-12T00:42:44.894Z,14.10
2018-06-12T00:43:44.923Z,8.90
2018-06-12T00:44:44.962Z,13.10
2018-06-12T00:45:44.994Z,12.30
2018-06-12T00:46:45.030Z,7.30
2018-06-12T00:47:45.067Z,9.50
2018-06-12T00:48:45.103Z,5.50
2018-06-12T00:49:45.139Z,11.60
2018-06-12T00:50:45.173Z,10.70
2018-06-12T00:51:45.210Z,10.10
2018-06-12T00:52:45.245Z,8.00
2018-06-12T00:53:45.282Z,10.80
2018-06-12T00:54:45.319Z,12.60
2018-06-12T00:55:45.354Z,10.70
2018-06-12T00:56:45.391Z,5.10
2018-06-12T00:57:45.432Z,8.20
2018-06-12T00:58:45.461Z,6.40
2018-06-12T00:59:45.496Z,8.10
2018-06-12T01:00:45.534Z,7.90
2018-06-12T01:01:45.571Z,12.80
2018-06-12T01:02:45.606Z,7.20
2018-06-12T01:03:45.642Z,9.90
2018-06-12T01:04:45.678Z,8.70
2018-06-12T01:05:45.714Z,12.70
2018-06-12T01:06:45.749Z,9.00
2018-06-12T01:07:45.786Z,10.10
2018-06-12T01:08:45.825Z,10.40
2018-06-12T01:09:45.858Z,6.90
2018-06-12T01:10:45.894Z,7.60
2018-06-12T01:11:45.928Z,5.90
2018-06-12T01:12:45.967Z,6.60
2018-06-12T01:13:46.002Z,8.70
2018-06-12T01:14:46.037Z,9.10
2018-06-12T01:15:46.078Z,7.70
2018-06-12T01:16:46.110Z,8.80
2018-06-12T01:17:46.146Z,7.70
2018-06-12T01:18:46.180Z,12.40
2018-06-12T01:19:46.226Z,10.10
2018-06-12T01:20:46.254Z,8.30
2018-06-12T01:21:46.290Z,5.30
2018-06-12T01:22:46.325Z,7.50
2018-06-12T01:23:46.362Z,9.40
2018-06-12T01:24:46.397Z,4.90
2018-06-12T01:25:46.436Z,6.00
2018-06-12T01:26:46.469Z,8.00
2018-06-12T01:27:46.505Z,11.00
2018-06-12T01:28:46.542Z,7.60
2018-06-12T01:29:46.579Z,10.50
2018-06-12T01:30:46.612Z,6.60
2018-06-12T01:31:46.648Z,6.70
2018-06-12T01:32:46.684Z,8.60
2018-06-12T01:33:46.722Z,6.70
2018-06-12T01:34:46.755Z,7.60
2018-06-12T01:35:46.793Z,7.00
2018-06-12T01:36:46.828Z,6.50
2018-06-12T01:37:46.864Z,8.10
2018-06-12T01:38:46.900Z,5.20
2018-06-12T01:39:46.936Z,5.50
2018-06-12T01:40:46.971Z,7.40
2018-06-12T01:41:47.008Z,15.10
2018-06-12T01:42:47.044Z,10.90
2018-06-12T01:43:47.080Z,11.20
2018-06-12T01:44:47.114Z,11.30
2018-06-12T01:45:47.153Z,9.30
2018-06-12T01:46:47.187Z,5.20
2018-06-12T01:47:47.222Z,5.70
2018-06-12T01:48:47.258Z,18.20
2018-06-12T01:49:47.294Z,7.80
2018-06-12T01:50:47.329Z,8.90
2018-06-12T01:51:47.365Z,7.60
2018-06-12T01:52:47.403Z,8.40
2018-06-12T01:53:47.442Z,4.50
2018-06-12T01:54:47.473Z,9.00
2018-06-12T01:55:47.509Z,7.20
2018-06-12T01:56:47.546Z,10.20
2018-06-12T01:57:47.582Z,10.30
2018-06-12T01:58:47.615Z,7.00
2018-06-12T01:59:47.651Z,10.30
2018-06-12T02:00:47.689Z,7.50
2018-06-12T02:01:47.723Z,5.50
2018-06-12T02:02:47.759Z,9.80
2018-06-12T02:03:47.794Z,6.90
2018-06-12T02:04:47.832Z,10.80
2018-06-12T02:05:47.868Z,8.40
2018-06-12T02:06:47.903Z,8.60
2018-06-12T02:07:47.938Z,6.80
2018-06-12T02:08:47.976Z,10.90
2018-06-12T02:09:48.012Z,6.40
2018-06-12T02:10:48.046Z,8.50
2018-06-12T02:11:48.083Z,10.80
2018-06-12T02:12:48.118Z,11.50
2018-06-12T02:13:48.155Z,9.50
2018-06-12T02:14:48.189Z,5.30
2018-06-12T02:15:48.226Z,6.80
2018-06-12T02:16:48.262Z,5.30
2018-06-12T02:17:48.298Z,6.50
2018-06-12T02:18:48.332Z,9.10
2018-06-12T02:19:48.369Z,10.90
2018-06-12T02:20:48.406Z,12.30
2018-06-12T02:21:48.441Z,7.40
2018-06-12T02:22:48.512Z,7.00
2018-06-12T02:23:48.512Z,5.10
2018-06-12T02:24:48.551Z,8.60
2018-06-12T02:25:48.584Z,10.40
2018-06-12T02:26:48.618Z,7.30
2018-06-12T02:27:48.655Z,6.30
2018-06-12T02:28:48.690Z,5.30
2018-06-12T02:29:48.726Z,11.20
2018-06-12T02:30:48.762Z,5.00
2018-06-12T02:31:48.799Z,10.80
2018-06-12T02:32:48.833Z,15.50
2018-06-12T02:33:48.869Z,8.40
2018-06-12T02:34:48.905Z,7.20
2018-06-12T02:35:48.940Z,11.50
2018-06-12T02:36:48.979Z,6.60
2018-06-12T02:37:49.012Z,8.80
2018-06-12T02:38:49.047Z,6.20
2018-06-12T02:39:49.083Z,8.60
2018-06-12T02:40:49.120Z,5.60
2018-06-12T02:41:49.154Z,8.60
2018-06-12T02:42:49.190Z,9.60
2018-06-12T02:43:49.226Z,9.60
2018-06-12T02:44:49.262Z,5.50
2018-06-12T02:45:49.298Z,7.80
2018-06-12T02:46:49.333Z,12.90
2018-06-12T02:47:49.369Z,9.10
2018-06-12T02:48:49.405Z,9.30
2018-06-12T02:49:49.440Z,5.80
2018-06-12T02:50:49.477Z,7.30
2018-06-12T02:51:49.511Z,8.30
2018-06-12T02:52:49.548Z,11.00
2018-06-12T02:53:49.583Z,5.00
2018-06-12T02:54:49.619Z,8.00
2018-06-12T02:55:49.655Z,11.20
2018-06-12T02:56:49.691Z,7.90
2018-06-12T02:57:49.726Z,7.70
2018-06-12T02:58:49.761Z,9.00
2018-06-12T02:59:49.801Z,5.10
2018-06-12T03:00:49.833Z,5.40
2018-06-12T03:01:49.886Z,9.40
2018-06-12T03:02:49.904Z,8.30
2018-06-12T03:03:49.940Z,12.20
2018-06-12T03:04:49.976Z,8.80
2018-06-12T03:05:50.012Z,8.60
2018-06-12T03:06:50.047Z,8.00
2018-06-12T03:07:50.082Z,12.10
2018-06-12T03:08:50.119Z,5.10
2018-06-12T03:09:50.155Z,8.10
2018-06-12T03:10:50.190Z,10.30
2018-06-12T03:11:50.225Z,7.10
2018-06-12T03:12:50.272Z,4.50
2018-06-12T03:13:50.299Z,5.20
2018-06-12T03:14:50.332Z,5.80
2018-06-12T03:15:50.369Z,8.10
2018-06-12T03:16:50.404Z,7.50
2018-06-12T03:17:50.440Z,5.30
2018-06-12T03:18:50.474Z,5.10
2018-06-12T03:19:50.511Z,11.00
2018-06-12T03:20:50.548Z,10.20
2018-06-12T03:21:50.583Z,8.70
2018-06-12T03:22:50.619Z,10.70
2018-06-12T03:23:50.654Z,12.40
2018-06-12T03:24:50.690Z,12.70
2018-06-12T03:25:50.726Z,4.70
2018-06-12T03:26:50.762Z,9.40
2018-06-12T03:27:50.797Z,12.10
2018-06-12T03:28:50.833Z,9.30
2018-06-12T03:29:50.869Z,6.70
2018-06-12T03:30:50.904Z,7.40
2018-06-12T03:31:50.942Z,7.70
2018-06-12T03:32:50.976Z,6.60
2018-06-12T03:33:51.012Z,6.10
2018-06-12T03:34:51.049Z,6.50
2018-06-12T03:35:51.084Z,7.50
2018-06-12T03:36:51.120Z,10.10
2018-06-12T03:37:51.156Z,7.30
2018-06-12T03:38:51.190Z,10.90
2018-06-12T03:39:51.227Z,5.60
2018-06-12T03:40:51.263Z,8.60
2018-06-12T03:41:51.298Z,13.90
2018-06-12T03:42:51.335Z,9.20
2018-06-12T03:43:51.369Z,7.60
2018-06-12T03:44:51.408Z,7.90
2018-06-12T03:45:51.443Z,9.30
2018-06-12T03:46:51.478Z,6.20
2018-06-12T03:47:51.514Z,5.80
2018-06-12T03:48:51.552Z,6.60
2018-06-12T03:49:51.587Z,10.70
2018-06-12T03:50:51.621Z,7.90
2018-06-12T03:51:51.658Z,14.90
2018-06-12T03:52:51.694Z,7.10
2018-06-12T03:53:51.732Z,8.50
2018-06-12T03:54:51.765Z,8.90
2018-06-12T03:55:51.802Z,9.30
2018-06-12T03:56:51.839Z,8.90
2018-06-12T03:57:51.876Z,7.50
2018-06-12T03:58:51.910Z,7.80
2018-06-12T03:59:51.946Z,6.20
2018-06-12T04:00:51.983Z,7.90
2018-06-12T04:01:52.019Z,6.50
2018-06-12T04:02:52.054Z,6.00
2018-06-12T04:03:52.091Z,8.20
2018-06-12T04:04:52.125Z,9.00
2018-06-12T04:05:52.163Z,6.00
2018-06-12T04:06:52.200Z,15.60
2018-06-12T04:07:52.233Z,8.30
2018-06-12T04:08:52.270Z,6.20
2018-06-12T04:09:52.307Z,6.90
2018-06-12T04:10:52.344Z,5.10
2018-06-12T04:11:52.378Z,6.70
2018-06-12T04:12:52.415Z,4.80
2018-06-12T04:13:52.450Z,9.00
2018-06-12T04:14:52.593Z,9.00
2018-06-12T04:15:52.523Z,10.10
2018-06-12T04:16:52.559Z,9.50
2018-06-12T04:17:52.595Z,8.80
2018-06-12T04:18:52.630Z,9.30
2018-06-12T04:19:52.666Z,5.90
2018-06-12T04:20:52.703Z,8.30
2018-06-12T04:21:52.740Z,6.70
2018-06-12T04:22:52.775Z,5.80
2018-06-12T04:23:52.810Z,5.20
2018-06-12T04:24:52.847Z,6.60
2018-06-12T04:25:52.883Z,11.80
2018-06-12T04:26:52.918Z,7.50
2018-06-12T04:27:52.956Z,8.60
2018-06-12T04:28:52.990Z,8.80
2018-06-12T04:29:53.027Z,6.20
2018-06-12T04:30:53.062Z,7.10
2018-06-12T04:31:53.100Z,7.80
2018-06-12T04:32:53.135Z,14.10
2018-06-12T04:33:53.172Z,8.00
2018-06-12T04:34:53.207Z,5.10
2018-06-12T04:35:53.242Z,10.70
2018-06-12T04:36:53.279Z,9.30
2018-06-12T04:37:53.316Z,8.70
2018-06-12T04:38:53.350Z,7.50
2018-06-12T04:39:53.387Z,6.50
2018-06-12T04:40:53.424Z,8.70
2018-06-12T04:41:53.460Z,8.40
2018-06-12T04:42:53.495Z,9.80
2018-06-12T04:43:53.532Z,8.60
2018-06-12T04:44:53.568Z,7.80
2018-06-12T04:45:53.605Z,6.30
2018-06-12T04:46:53.640Z,11.30
2018-06-12T04:47:53.676Z,7.70
2018-06-12T04:48:53.713Z,5.60
2018-06-12T04:49:53.749Z,6.40
2018-06-12T04:50:53.784Z,6.20
2018-06-12T04:51:53.823Z,11.30
2018-06-12T04:52:53.857Z,4.90
2018-06-12T04:53:53.892Z,8.30
2018-06-12T04:54:53.929Z,5.90
2018-06-12T04:55:53.965Z,13.20
2018-06-12T04:56:54.002Z,5.50
2018-06-12T04:57:54.039Z,9.10
2018-06-12T04:58:54.073Z,6.00
2018-06-12T04:59:54.109Z,10.50
2018-06-12T05:00:54.146Z,9.70
2018-06-12T05:01:54.183Z,6.80
2018-06-12T05:02:54.218Z,9.90
2018-06-12T05:03:54.255Z,7.50
2018-06-12T05:04:54.291Z,13.20
2018-06-12T05:05:54.327Z,7.80
2018-06-12T05:06:54.362Z,7.20
2018-06-12T05:07:54.399Z,6.40
2018-06-12T05:08:54.436Z,7.20
2018-06-12T05:09:54.473Z,8.10
2018-06-12T05:10:54.509Z,6.40
2018-06-12T05:11:54.545Z,5.90
2018-06-12T05:12:54.582Z,6.30
2018-06-12T05:13:54.624Z,8.80
2018-06-12T05:14:54.654Z,10.70
2018-06-12T05:15:54.689Z,11.80
2018-06-12T05:16:54.727Z,5.70
2018-06-12T05:17:54.764Z,6.00
2018-06-12T05:18:54.800Z,5.20
2018-06-12T05:19:54.841Z,5.30
2018-06-12T05:20:54.873Z,7.70
2018-06-12T05:21:54.910Z,6.50
2018-06-12T05:22:54.946Z,5.30
2018-06-12T05:23:54.983Z,5.60
2018-06-12T05:24:55.019Z,7.50
2018-06-12T05:25:55.057Z,5.10
2018-06-12T05:26:55.092Z,8.70
2018-06-12T05:27:55.129Z,7.20
2018-06-12T05:28:55.165Z,5.20
2018-06-12T05:29:55.202Z,4.90
2018-06-12T05:30:55.239Z,5.00
2018-06-12T05:31:55.276Z,5.50
2018-06-12T05:32:55.313Z,4.80
2018-06-12T05:33:55.348Z,6.30
2018-06-12T05:34:55.386Z,5.60
2018-06-12T05:35:55.422Z,9.60
2018-06-12T05:36:55.464Z,7.40
2018-06-12T05:37:55.497Z,6.20
2018-06-12T05:38:55.532Z,5.90
2018-06-12T05:39:55.573Z,6.50
2018-06-12T05:40:55.606Z,7.60
2018-06-12T05:41:55.644Z,4.90
2018-06-12T05:42:55.682Z,8.00
2018-06-12T05:43:55.726Z,6.60
2018-06-12T05:44:55.756Z,6.90
2018-06-12T05:45:55.793Z,10.00
2018-06-12T05:46:55.830Z,6.50
2018-06-12T05:47:55.866Z,4.20
2018-06-12T05:48:55.904Z,5.70
2018-06-12T05:49:55.942Z,4.70
2018-06-12T05:50:55.979Z,12.30
2018-06-12T05:51:56.056Z,4.70
2018-06-12T05:52:56.053Z,6.00
2018-06-12T05:53:56.091Z,6.90
2018-06-12T05:54:56.127Z,4.70
2018-06-12T05:55:56.165Z,8.40
2018-06-12T05:56:56.202Z,7.30
2018-06-12T05:57:56.240Z,10.60
2018-06-12T05:58:56.277Z,9.40
2018-06-12T05:59:56.316Z,8.50
2018-06-12T06:00:56.352Z,6.00
2018-06-12T06:01:56.390Z,10.00
2018-06-12T06:02:56.427Z,10.80
2018-06-12T06:03:56.463Z,7.30
2018-06-12T06:04:56.502Z,7.50
2018-06-12T06:05:56.539Z,5.90
2018-06-12T06:06:56.576Z,6.10
2018-06-12T06:07:56.636Z,6.90
2018-06-12T06:08:56.652Z,6.60
2018-06-12T06:09:56.690Z,7.30
2018-06-12T06:10:56.752Z,10.00
2018-06-12T06:11:56.764Z,8.60
2018-06-12T06:12:56.802Z,8.80
2018-06-12T06:13:56.840Z,6.60
2018-06-12T06:14:56.877Z,5.50
2018-06-12T06:15:56.915Z,7.00
2018-06-12T06:16:56.961Z,12.00
2018-06-12T06:17:56.991Z,4.60
2018-06-12T06:18:57.029Z,8.10
2018-06-12T06:19:57.068Z,8.30
2018-06-12T06:20:57.104Z,9.10
2018-06-12T06:21:57.145Z,11.00
2018-06-12T06:22:57.179Z,7.00
2018-06-12T06:23:57.216Z,6.30
2018-06-12T06:24:57.256Z,8.60
2018-06-12T06:25:57.293Z,7.80
2018-06-12T06:26:57.329Z,8.70
2018-06-12T06:27:57.367Z,6.50
2018-06-12T06:28:57.405Z,5.70
2018-06-12T06:29:57.442Z,7.10
2018-06-12T06:30:57.481Z,6.40
2018-06-12T06:31:57.519Z,7.10
2018-06-12T06:32:57.558Z,6.10
2018-06-12T06:33:57.596Z,6.00
2018-06-12T06:34:57.635Z,6.80
2018-06-12T06:35:57.672Z,5.50
2018-06-12T06:36:57.709Z,12.10
2018-06-12T06:37:57.747Z,4.70
2018-06-12T06:38:57.787Z,6.90
2018-06-12T06:39:57.823Z,9.40
2018-06-12T06:40:57.864Z,7.90
2018-06-12T06:41:57.899Z,7.10
2018-06-12T06:42:57.967Z,5.10
2018-06-12T06:43:57.975Z,8.20
2018-06-12T06:44:58.013Z,7.50
2018-06-12T06:45:58.051Z,6.80
2018-06-12T06:46:58.088Z,6.20
2018-06-12T06:47:58.128Z,5.60
2018-06-12T06:48:58.166Z,5.00
2018-06-12T06:49:58.204Z,6.20
2018-06-12T06:50:58.246Z,7.20
2018-06-12T06:51:58.281Z,6.00
2018-06-12T06:52:58.322Z,6.90
2018-06-12T06:53:58.356Z,6.50
2018-06-12T06:54:58.397Z,7.70
2018-06-12T06:55:58.433Z,7.90
2018-06-12T06:56:58.473Z,6.90
2018-06-12T06:57:58.513Z,4.80
2018-06-12T06:58:58.551Z,7.10
2018-06-12T06:59:58.586Z,4.20
2018-06-12T07:00:58.625Z,6.40
2018-06-12T07:01:58.665Z,6.00
2018-06-12T07:02:58.702Z,4.40
2018-06-12T07:03:58.740Z,5.60
2018-06-12T07:04:58.778Z,4.20
2018-06-12T07:05:58.818Z,4.10
2018-06-12T07:06:58.855Z,6.40
2018-06-12T07:07:58.896Z,5.70
2018-06-12T07:08:58.941Z,9.60
2018-06-12T07:09:58.973Z,6.20
2018-06-12T07:10:59.011Z,4.80
2018-06-12T07:11:59.049Z,9.00
2018-06-12T07:12:59.089Z,7.60
2018-06-12T07:13:59.128Z,8.10
2018-06-12T07:14:59.231Z,8.10
2018-06-12T07:15:59.210Z,7.70
2018-06-12T07:16:59.244Z,4.10
2018-06-12T07:17:59.283Z,8.40
2018-06-12T07:19:01.946Z,5.70
2018-06-12T07:19:59.360Z,5.60
2018-06-12T07:20:59.400Z,5.40
2018-06-12T07:21:59.440Z,8.50
2018-06-12T07:22:59.479Z,6.50
2018-06-12T07:23:59.518Z,4.80
2018-06-12T07:24:59.558Z,5.10
2018-06-12T07:25:59.597Z,5.10
2018-06-12T07:27:42.188Z,3.90
2018-06-12T07:28:42.228Z,5.40
2018-06-12T07:29:42.267Z,2.80
2018-06-12T07:30:42.306Z,5.50
2018-06-12T07:31:42.345Z,7.30
2018-06-12T07:32:42.385Z,5.20
2018-06-12T07:33:42.429Z,3.40
2018-06-12T07:34:42.464Z,4.20
2018-06-12T07:35:43.840Z,3.60
2018-06-12T07:36:42.542Z,4.10
2018-06-12T07:37:42.930Z,6.20
2018-06-12T07:38:42.623Z,5.10
2018-06-12T07:39:42.663Z,5.20
2018-06-12T07:40:42.702Z,6.80
2018-06-12T07:41:42.741Z,5.80
2018-06-12T07:42:42.780Z,4.40
2018-06-12T07:43:42.821Z,2.90
2018-06-12T07:44:42.859Z,4.40
2018-06-12T07:45:42.899Z,4.20
2018-06-12T07:46:42.939Z,6.20
2018-06-12T07:47:42.977Z,6.20
2018-06-12T07:48:43.017Z,3.80
2018-06-12T07:49:43.057Z,4.70
2018-06-12T07:50:43.094Z,3.70
2018-06-12T07:51:43.135Z,3.70
2018-06-12T07:52:43.175Z,3.20
2018-06-12T07:53:43.214Z,3.70
2018-06-12T07:54:43.252Z,4.30
2018-06-12T07:55:43.292Z,2.80
2018-06-12T07:56:43.332Z,6.30
2018-06-12T07:57:43.371Z,3.70
2018-06-12T07:58:43.410Z,6.20
2018-06-12T07:59:43.453Z,1.90
2018-06-12T08:00:43.490Z,5.00
2018-06-12T08:01:43.530Z,4.40
2018-06-12T08:02:43.568Z,3.70
2018-06-12T08:03:43.608Z,2.30
2018-06-12T08:04:43.648Z,4.60
2018-06-12T08:05:43.688Z,3.60
2018-06-12T08:06:43.727Z,3.20
2018-06-12T08:07:43.768Z,4.80
2018-06-12T08:08:43.807Z,3.60
2018-06-12T08:09:43.852Z,2.50
2018-06-12T08:10:43.887Z,3.00
2018-06-12T08:11:43.927Z,4.40
2018-06-12T08:12:44.028Z,1.80
2018-06-12T08:13:44.007Z,2.90
2018-06-12T08:14:44.046Z,4.50
2018-06-12T08:15:44.090Z,2.20
2018-06-12T08:16:44.128Z,2.10
2018-06-12T08:17:44.173Z,7.20
2018-06-12T08:18:44.207Z,4.60
2018-06-12T08:19:44.247Z,6.80
2018-06-12T08:20:44.288Z,2.70
2018-06-12T08:21:44.328Z,5.10
2018-06-12T08:22:44.367Z,3.20
2018-06-12T08:23:44.409Z,1.70
2018-06-12T08:24:44.448Z,2.20
2018-06-12T08:25:44.491Z,3.00
2018-06-12T08:26:44.528Z,1.90
2018-06-12T08:27:44.571Z,2.30
2018-06-12T08:28:44.609Z,3.20
2018-06-12T08:29:44.775Z,1.50
2018-06-12T08:30:44.690Z,4.20
2018-06-12T08:31:44.731Z,3.10
2018-06-12T08:32:44.771Z,3.00
2018-06-12T08:33:44.812Z,4.10
2018-06-12T08:34:44.852Z,3.90
2018-06-12T08:35:44.892Z,2.10
2018-06-12T08:36:44.933Z,2.50
2018-06-12T08:37:44.976Z,2.60
2018-06-12T08:38:45.014Z,4.40
2018-06-12T08:39:45.055Z,2.30
2018-06-12T08:40:45.097Z,2.40
2018-06-12T08:41:45.137Z,3.00
2018-06-12T08:42:45.178Z,2.90
2018-06-12T08:43:45.243Z,3.30
2018-06-12T08:44:45.279Z,4.20
2018-06-12T08:45:45.321Z,3.60
2018-06-12T08:46:45.666Z,6.10
2018-06-12T08:47:45.400Z,2.90
2018-06-12T08:48:45.626Z,3.40
2018-06-12T08:49:45.465Z,6.70
2018-06-12T08:50:45.526Z,2.50
2018-06-12T08:51:45.563Z,4.70
2018-06-12T08:52:45.911Z,3.30
2018-06-12T08:53:45.719Z,2.50
2018-06-12T08:54:45.688Z,3.00
2018-06-12T08:55:45.728Z,1.60
2018-06-12T08:56:45.981Z,3.70
2018-06-12T08:57:46.213Z,5.30
2018-06-12T08:58:45.848Z,3.20
2018-06-12T08:59:45.870Z,6.50
2018-06-12T09:00:45.933Z,4.20
2018-06-12T09:01:46.681Z,5.60
2018-06-12T09:02:46.081Z,4.90
2018-06-12T09:03:46.032Z,3.60
2018-06-12T09:04:46.294Z,2.00
2018-06-12T09:05:46.333Z,3.60
2018-06-12T09:06:46.170Z,6.10
2018-06-12T09:07:46.193Z,3.10
2018-06-12T09:08:46.251Z,2.20
2018-06-12T09:09:46.292Z,3.90
2018-06-12T09:10:46.334Z,2.20
2018-06-12T09:11:46.859Z,3.20
2018-06-12T09:12:46.414Z,3.80
2018-06-12T09:13:46.452Z,7.40
2018-06-12T09:14:46.494Z,1.80
2018-06-12T09:15:46.581Z,2.90
2018-06-12T09:17:46.615Z,3.60
2018-06-12T09:18:46.657Z,2.10
2018-06-12T09:19:46.694Z,4.20
2018-06-12T09:20:46.736Z,2.70
2018-06-12T09:22:46.795Z,2.60
2018-06-12T09:23:46.842Z,3.30
2018-06-12T09:24:46.878Z,1.90
2018-06-12T09:25:46.915Z,1.60
2018-06-12T09:26:46.954Z,3.70
2018-06-12T09:27:46.995Z,3.10
2018-06-12T09:28:47.034Z,2.40
2018-06-12T09:29:47.074Z,3.60
2018-06-12T09:30:47.113Z,3.60
2018-06-12T09:31:47.153Z,3.20
2018-06-12T09:32:47.193Z,3.30
2018-06-12T09:33:47.233Z,3.60
2018-06-12T09:34:47.271Z,4.60
2018-06-12T09:35:47.312Z,1.70
2018-06-12T09:36:47.352Z,3.20
2018-06-12T09:37:47.392Z,4.20
2018-06-12T09:38:47.431Z,3.80
2018-06-12T09:39:47.470Z,4.60
2018-06-12T09:40:47.510Z,7.30
2018-06-12T09:41:47.550Z,6.00
2018-06-12T09:42:47.588Z,2.90
2018-06-12T09:43:47.627Z,4.30
2018-06-12T09:44:47.666Z,3.80
2018-06-12T09:45:47.706Z,3.00
2018-06-12T09:46:47.744Z,5.70
2018-06-12T09:47:47.783Z,2.00
2018-06-12T09:48:47.822Z,3.00
2018-06-12T09:49:47.862Z,2.00
2018-06-12T09:50:47.899Z,3.50
2018-06-12T09:51:47.938Z,2.90
2018-06-12T09:52:47.977Z,2.70
2018-06-12T09:53:48.016Z,4.90
2018-06-12T09:54:48.054Z,1.80
2018-06-12T09:55:48.092Z,3.70
2018-06-12T09:56:48.130Z,4.70
2018-06-12T09:57:48.254Z,3.50
2018-06-12T09:58:48.208Z,2.60
2018-06-12T09:59:48.246Z,2.30
2018-06-12T10:00:48.284Z,5.00
2018-06-12T10:01:48.327Z,2.60
2018-06-12T10:02:48.360Z,4.30
2018-06-12T10:03:48.399Z,2.90
2018-06-12T10:04:48.437Z,3.20
2018-06-12T10:05:48.475Z,3.20
2018-06-12T10:06:48.512Z,5.20
2018-06-12T10:07:48.552Z,4.40
2018-06-12T10:08:48.590Z,2.50
2018-06-12T10:09:48.629Z,3.20
2018-06-12T10:10:48.666Z,2.30
2018-06-12T10:11:48.705Z,3.70
2018-06-12T10:12:48.743Z,3.50
2018-06-12T10:13:48.781Z,2.00
2018-06-12T10:14:48.820Z,6.60
2018-06-12T10:15:48.858Z,5.60
2018-06-12T10:16:48.897Z,3.50
2018-06-12T10:17:48.936Z,3.50
2018-06-12T10:18:48.988Z,3.50
2018-06-12T10:19:49.013Z,2.60
2018-06-12T10:20:49.051Z,2.20
2018-06-12T10:21:49.090Z,5.10
2018-06-12T10:22:49.128Z,2.10
2018-06-12T10:23:49.168Z,3.90
2018-06-12T10:24:49.208Z,2.50
2018-06-12T10:25:49.247Z,5.80
2018-06-12T10:26:49.285Z,3.40
2018-06-12T10:27:49.325Z,1.90
2018-06-12T10:28:49.366Z,1.80
2018-06-12T10:29:49.405Z,3.70
2018-06-12T10:30:49.444Z,1.80
2018-06-12T10:31:49.484Z,3.90
2018-06-12T10:32:49.528Z,2.10
2018-06-12T10:33:49.566Z,2.50
2018-06-12T10:34:52.228Z,2.30
2018-06-12T10:35:49.647Z,2.10
2018-06-12T10:36:49.689Z,1.80
2018-06-12T10:37:49.731Z,2.60
2018-06-12T10:38:49.769Z,3.30
2018-06-12T10:39:49.813Z,1.60
2018-06-12T10:40:49.854Z,2.80
2018-06-12T10:41:49.899Z,3.70
2018-06-12T10:42:49.937Z,1.50
2018-06-12T10:43:50.385Z,2.90
2018-06-12T10:44:50.024Z,3.00
2018-06-12T10:45:50.066Z,1.40
2018-06-12T10:46:50.109Z,3.40
2018-06-12T10:47:50.152Z,1.50
2018-06-12T10:48:50.195Z,4.40
2018-06-12T10:49:50.241Z,2.00
2018-06-12T10:50:50.282Z,1.60
2018-06-12T10:51:50.328Z,1.40
2018-06-12T10:52:50.371Z,1.40
2018-06-12T10:53:50.416Z,5.70
2018-06-12T10:54:50.457Z,2.60
2018-06-12T10:55:50.502Z,2.50
2018-06-12T10:56:50.550Z,1.20
2018-06-12T10:57:50.592Z,4.30
2018-06-12T10:58:50.635Z,7.80
2018-06-12T10:59:50.682Z,2.50
2018-06-12T11:00:50.728Z,4.70
2018-06-12T11:01:50.777Z,2.60
2018-06-12T11:02:50.819Z,3.20
2018-06-12T11:03:50.865Z,3.90
2018-06-12T11:04:50.912Z,2.20
2018-06-12T11:06:51.004Z,3.40
2018-06-12T11:07:51.052Z,2.60
2018-06-12T11:08:51.099Z,3.50
2018-06-12T11:09:51.148Z,2.50
2018-06-12T11:10:51.247Z,1.20
2018-06-12T11:11:51.245Z,2.10
2018-06-12T11:12:51.293Z,3.60
2018-06-12T11:13:51.344Z,2.50
2018-06-12T11:14:51.391Z,2.00
2018-06-12T11:15:51.441Z,1.60
2018-06-12T11:16:51.494Z,1.40
2018-06-12T11:17:51.547Z,3.10
2018-06-12T11:18:52.000Z,2.20
2018-06-12T11:19:51.646Z,3.50
2018-06-12T11:20:51.748Z,1.20
2018-06-12T11:21:51.751Z,2.70
2018-06-12T11:22:51.803Z,1.70
2018-06-12T11:23:51.855Z,1.80
2018-06-12T11:24:51.908Z,5.00
2018-06-12T11:25:51.961Z,2.80
2018-06-12T11:26:52.012Z,1.30
2018-06-12T11:27:52.064Z,1.30
2018-06-12T11:28:52.116Z,2.40
2018-06-12T11:29:52.221Z,1.40
2018-06-12T11:30:52.240Z,4.70
2018-06-12T11:31:52.292Z,1.90
2018-06-12T11:32:52.344Z,2.00
2018-06-12T11:33:52.397Z,2.20
2018-06-12T11:34:52.448Z,2.50
2018-06-12T11:35:52.474Z,1.70
2018-06-12T11:36:52.552Z,1.70
2018-06-12T11:37:52.601Z,1.50
2018-06-12T11:38:52.655Z,4.10
2018-06-12T11:39:52.702Z,1.50
2018-06-12T11:40:52.753Z,1.80
2018-06-12T11:41:52.805Z,1.30
2018-06-12T11:42:52.854Z,1.20
2018-06-12T11:43:52.883Z,1.60
2018-06-12T11:44:52.961Z,2.90
2018-06-12T11:45:53.007Z,2.90
2018-06-12T11:46:53.056Z,2.80
2018-06-12T11:47:53.112Z,1.40
2018-06-12T11:48:53.154Z,1.70
2018-06-12T11:49:53.209Z,3.40
2018-06-12T11:50:53.287Z,1.20
2018-06-12T11:51:53.306Z,1.80
2018-06-12T11:52:53.359Z,2.10
2018-06-12T11:53:53.410Z,3.00
2018-06-12T11:54:53.460Z,1.30
2018-06-12T11:55:54.262Z,1.60
2018-06-12T11:56:53.554Z,4.00
2018-06-12T11:57:53.584Z,4.20
2018-06-12T11:58:53.647Z,1.80
2018-06-12T11:59:53.693Z,1.30
2018-06-12T12:00:53.751Z,3.10
2018-06-12T12:01:53.793Z,2.90
2018-06-12T12:02:53.842Z,1.00
2018-06-12T12:03:53.891Z,1.10
2018-06-12T12:04:53.916Z,1.50
2018-06-12T12:05:53.986Z,1.00
2018-06-12T12:06:54.079Z,2.20
2018-06-12T12:07:54.077Z,1.20
2018-06-12T12:08:54.126Z,2.10
2018-06-12T12:09:54.170Z,2.30
2018-06-12T12:10:54.224Z,1.20
2018-06-12T12:11:54.319Z,1.40
2018-06-12T12:12:54.319Z,2.00
2018-06-12T12:13:54.367Z,1.80
2018-06-12T12:14:54.413Z,0.90
2018-06-12T12:15:54.454Z,2.50
2018-06-12T12:16:54.537Z,2.50
2018-06-12T12:17:54.543Z,2.50
2018-06-12T12:18:54.596Z,1.60
2018-06-12T12:19:54.629Z,1.90
2018-06-12T12:20:54.688Z,1.10
2018-06-12T12:21:54.732Z,1.40
2018-06-12T12:22:54.798Z,3.70
2018-06-12T12:23:54.831Z,0.90
2018-06-12T12:24:54.880Z,1.50
2018-06-12T12:25:54.926Z,2.30
2018-06-12T12:26:54.971Z,1.40
2018-06-12T12:27:55.017Z,3.10
2018-06-12T12:28:55.064Z,2.00
2018-06-12T12:29:55.089Z,1.70
2018-06-12T12:30:55.158Z,1.40
2018-06-12T12:31:55.209Z,1.20
2018-06-12T12:32:55.248Z,1.40
2018-06-12T12:33:55.295Z,2.30
2018-06-12T12:34:55.337Z,1.40
2018-06-12T12:35:55.393Z,3.00
2018-06-12T12:36:55.431Z,2.70
2018-06-12T12:37:55.483Z,1.90
2018-06-12T12:38:55.528Z,1.70
2018-06-12T12:39:55.576Z,3.20
2018-06-12T12:40:55.624Z,2.00
2018-06-12T12:41:55.671Z,2.80
2018-06-12T12:42:55.707Z,1.30
2018-06-12T12:43:55.760Z,1.10
2018-06-12T12:44:55.805Z,0.90
2018-06-12T12:45:55.851Z,1.00
2018-06-12T12:46:55.894Z,1.70
2018-06-12T12:47:55.921Z,1.60
2018-06-12T12:48:55.968Z,2.90
2018-06-12T12:49:56.016Z,2.40
2018-06-12T12:50:56.061Z,3.50
2018-06-12T12:51:56.107Z,2.90
2018-06-12T12:52:56.162Z,2.90
2018-06-12T12:53:56.203Z,2.20
2018-06-12T12:54:56.248Z,4.60
2018-06-12T12:55:56.297Z,2.80
2018-06-12T12:56:56.369Z,1.80
2018-06-12T12:57:56.390Z,1.90
2018-06-12T12:58:56.441Z,1.80
2018-06-12T12:59:56.541Z,1.30
2018-06-12T13:00:56.548Z,3.20
2018-06-12T13:01:56.575Z,2.20
2018-06-12T13:02:56.651Z,2.80
2018-06-12T13:03:56.686Z,1.90
2018-06-12T13:04:56.712Z,1.40
2018-06-12T13:05:56.789Z,1.50
2018-06-12T13:06:56.831Z,3.50
2018-06-12T13:07:56.873Z,1.40
2018-06-12T13:08:56.938Z,3.30
2018-06-12T13:09:56.961Z,2.20
2018-06-12T13:10:57.014Z,3.10
2018-06-12T13:11:57.061Z,1.60
2018-06-12T13:12:57.106Z,3.00
2018-06-12T13:13:57.196Z,1.00
2018-06-12T13:14:57.190Z,1.10
2018-06-12T13:15:57.235Z,2.10
2018-06-12T13:16:57.283Z,1.00
2018-06-12T13:17:57.329Z,1.50
2018-06-12T13:18:57.369Z,3.90
2018-06-12T13:19:57.409Z,3.20